Weather reports worldwide

Advertisment
Inverness/Dalcross, United Kingdom (3059): temperature & dewpoint: 03.04.2020 12:00:00 - 09.04.2020 12:00:00 (BST)Inverness/Dalcross, United Kingdom (3059): wind speed: 03.04.2020 12:00:00 - 09.04.2020 12:00:00 (BST)Inverness/Dalcross, United Kingdom (3059): wind direction: 03.04.2020 12:00:00 - 09.04.2020 12:00:00 (BST)Inverness/Dalcross, United Kingdom (3059): visibility: 03.04.2020 12:00:00 - 09.04.2020 12:00:00 (BST)
Date & Time tt [°C] td [°C] ff [km/h] ff [kn] dd vv [km]
09.04.2020 12:00:00 - - - - - -
09.04.2020 11:00:00 8,0 5,0 8 4 NE 10
09.04.2020 10:00:00 7,0 4,0 9 5 NE 10
09.04.2020 09:00:00 6,0 4,0 9 5 NE 10
09.04.2020 08:00:00 5,0 4,0 11 6 NE 10
09.04.2020 07:00:00 4,0 4,0 9 5 NE 10
09.04.2020 06:00:00 3,0 3,0 4 2 NE 10
09.04.2020 05:00:00 3,0 2,0 4 2 NE 10
09.04.2020 04:00:00 3,0 2,0 0 0 N 10
09.04.2020 03:00:00 3,0 2,0 0 0 N 10
09.04.2020 02:00:00 2,0 1,0 0 0 N 10
09.04.2020 01:00:00 4,0 4,0 0 0 N 10
09.04.2020 00:00:00 5,0 4,0 0 0 N 10
08.04.2020 23:00:00 6,0 5,0 0 0 N 10
08.04.2020 22:00:00 6,0 5,0 0 0 N 10
08.04.2020 21:00:00 6,0 5,0 4 2 SE 10
08.04.2020 20:00:00 6,0 5,0 2 1 ENE 10
08.04.2020 19:00:00 6,0 6,0 11 6 NE 7
08.04.2020 18:00:00 - - - - - -
08.04.2020 17:00:00 7,0 6,0 13 7 NE 2,5
08.04.2020 16:00:00 7,0 6,0 15 8 NE 3,9
08.04.2020 15:00:00 7,0 6,0 18 10 NE 3,4
08.04.2020 14:00:00 7,0 6,0 16 9 NNE 10
08.04.2020 13:00:00 12,0 8,0 29 16 SW 10
08.04.2020 12:00:00 11,0 7,0 31 17 SW 10
08.04.2020 11:00:00 11,0 7,0 29 16 SW 10
08.04.2020 10:00:00 11,0 7,0 26 14 SW 10
08.04.2020 09:00:00 10,0 6,0 29 16 SW 10
08.04.2020 08:00:00 9,0 6,0 18 10 SW 10
08.04.2020 07:00:00 9,0 6,0 16 9 SW 10
08.04.2020 06:00:00 9,0 5,0 26 14 SSW 10
08.04.2020 05:00:00 9,0 5,0 26 14 SSW 10
08.04.2020 04:00:00 9,0 5,0 18 10 SSW 10
08.04.2020 03:00:00 9,0 4,0 22 12 SSW 10
08.04.2020 02:00:00 9,0 4,0 21 11 SSW 10
08.04.2020 01:00:00 9,0 4,0 11 6 SW 10
08.04.2020 00:00:00 10,0 3,0 16 9 SSW 10
07.04.2020 23:00:00 10,0 3,0 15 8 SSW 10
07.04.2020 22:00:00 10,0 3,0 13 7 S 10
07.04.2020 21:00:00 11,0 3,0 18 10 SSW 10
07.04.2020 20:00:00 11,0 3,0 26 14 SSW 10
07.04.2020 19:00:00 12,0 2,0 29 16 SW 10
07.04.2020 18:00:00 13,0 2,0 39 21 SW 10
07.04.2020 17:00:00 13,0 1,0 37 20 SSW 10
07.04.2020 16:00:00 14,0 1,0 41 22 SSW 10
07.04.2020 15:00:00 14,0 2,0 37 20 SW 10
07.04.2020 14:00:00 14,0 0,0 35 19 SSW 10
07.04.2020 13:00:00 13,0 1,0 28 15 SW 10
07.04.2020 12:00:00 12,0 3,0 24 13 WSW 10
07.04.2020 11:00:00 12,0 3,0 37 20 SW 10
07.04.2020 10:00:00 10,0 3,0 42 23 SW 10
07.04.2020 09:00:00 9,0 3,0 21 11 SSW 10
07.04.2020 08:00:00 7,0 2,0 28 15 SSW 10
07.04.2020 07:00:00 7,0 2,0 28 15 SSW 10
07.04.2020 06:00:00 7,0 2,0 28 15 SSW 10
07.04.2020 05:00:00 7,0 3,0 31 17 SSW 10
07.04.2020 04:00:00 6,0 3,0 22 12 SW 10
07.04.2020 03:00:00 6,0 3,0 26 14 SSW 10
07.04.2020 02:00:00 6,0 2,0 16 9 SSW 10
07.04.2020 01:00:00 6,0 2,0 16 9 SSW 10
07.04.2020 00:00:00 6,0 2,0 15 8 SSW 10
06.04.2020 23:00:00 6,0 2,0 16 9 SSW 10
06.04.2020 22:00:00 6,0 2,0 16 9 SSW 10
06.04.2020 21:00:00 7,0 2,0 15 8 SSW 10
06.04.2020 20:00:00 8,0 2,0 13 7 SW 10
06.04.2020 19:00:00 9,0 2,0 22 12 WSW 10
06.04.2020 18:00:00 10,0 2,0 18 10 WSW 10
06.04.2020 17:00:00 10,0 3,0 29 16 W 10
06.04.2020 16:00:00 11,0 2,0 34 18 WSW 10
06.04.2020 15:00:00 12,0 2,0 29 16 WSW 10
06.04.2020 14:00:00 11,0 3,0 28 15 WSW 10
06.04.2020 13:00:00 12,0 4,0 41 22 SSW 10
06.04.2020 12:00:00 11,0 4,0 48 26 SW 10
06.04.2020 11:00:00 12,0 3,0 44 24 SSW 10
06.04.2020 10:00:00 11,0 4,0 46 25 SW 10
06.04.2020 09:00:00 10,0 5,0 37 20 SW 10
06.04.2020 08:00:00 10,0 5,0 28 15 SSW 10
06.04.2020 07:00:00 10,0 5,0 39 21 SSW 10
06.04.2020 06:00:00 10,0 6,0 31 17 SSW 10
06.04.2020 05:00:00 10,0 7,0 46 25 SSW 10
06.04.2020 04:00:00 13,0 9,0 41 22 S 10
06.04.2020 03:00:00 14,0 8,0 41 22 S 10
06.04.2020 02:00:00 14,0 7,0 22 12 S 10
06.04.2020 01:00:00 14,0 7,0 42 23 S 10
06.04.2020 00:00:00 16,0 6,0 52 28 S 2,2
05.04.2020 23:00:00 16,0 5,0 2 1 - 10
05.04.2020 22:00:00 14,0 5,0 2 1 - 10
05.04.2020 21:00:00 15,0 5,0 13 7 S 10
05.04.2020 20:00:00 15,0 5,0 13 7 S 10
05.04.2020 19:00:00 16,0 4,0 22 12 SSE 10
05.04.2020 18:00:00 16,0 4,0 26 14 SSE 10
05.04.2020 17:00:00 17,0 3,0 18 10 S 10
05.04.2020 16:00:00 16,0 4,0 21 11 S 10
05.04.2020 15:00:00 16,0 4,0 28 15 S 10
05.04.2020 14:00:00 14,0 4,0 22 12 S 10
05.04.2020 13:00:00 15,0 4,0 26 14 S 10
05.04.2020 12:00:00 14,0 4,0 2 1 - 10
05.04.2020 11:00:00 12,0 4,0 5 3 - 10
05.04.2020 10:00:00 11,0 4,0 8 4 SSE 10
05.04.2020 09:00:00 10,0 3,0 24 13 SSW 10
05.04.2020 08:00:00 10,0 3,0 24 13 S 10
05.04.2020 07:00:00 8,0 3,0 4 2 - 10
05.04.2020 06:00:00 5,0 2,0 9 5 NE 10
05.04.2020 05:00:00 6,0 3,0 13 7 SSW 10
05.04.2020 04:00:00 3,0 1,0 5 3 E 0,5
05.04.2020 03:00:00 5,0 2,0 4 2 - 1,9
05.04.2020 02:00:00 4,0 1,0 0 0 N 5
05.04.2020 01:00:00 7,0 2,0 5 3 - 10
05.04.2020 00:00:00 7,0 2,0 8 4 SSE 10
04.04.2020 23:00:00 9,0 3,0 15 8 SSE 10
04.04.2020 22:00:00 8,0 3,0 8 4 S 10
04.04.2020 21:00:00 9,0 3,0 11 6 SSE 10
04.04.2020 20:00:00 9,0 2,0 13 7 S 10
04.04.2020 19:00:00 10,0 3,0 11 6 SSW 10
04.04.2020 18:00:00 10,0 3,0 15 8 SW 10
04.04.2020 17:00:00 11,0 3,0 5 3 - 10
04.04.2020 16:00:00 10,0 3,0 16 9 SSW 10
04.04.2020 15:00:00 10,0 3,0 24 13 SW 10
04.04.2020 14:00:00 11,0 3,0 21 11 SSW 10
04.04.2020 13:00:00 10,0 3,0 31 17 SW 10
04.04.2020 12:00:00 10,0 4,0 29 16 SSW 10
04.04.2020 11:00:00 9,0 4,0 26 14 SSW 10
04.04.2020 10:00:00 8,0 4,0 22 12 SW 10
04.04.2020 09:00:00 7,0 4,0 16 9 SW 10
04.04.2020 08:00:00 6,0 4,0 9 5 SW 10
04.04.2020 07:00:00 5,0 3,0 9 5 SW 10
04.04.2020 06:00:00 4,0 3,0 2 1 WSW 10
04.04.2020 05:00:00 3,0 2,0 4 2 SW 10
04.04.2020 04:00:00 3,0 2,0 4 2 SW 10
04.04.2020 03:00:00 3,0 2,0 8 4 SW 10
04.04.2020 02:00:00 4,0 2,0 8 4 SW 10
04.04.2020 01:00:00 4,0 2,0 5 3 SSW 10
04.04.2020 00:00:00 3,0 2,0 8 4 SSW 10
03.04.2020 23:00:00 4,0 2,0 8 4 SSW 10
03.04.2020 22:00:00 4,0 1,0 8 4 SSW 10
03.04.2020 21:00:00 4,0 1,0 5 3 SW 10
03.04.2020 20:00:00 5,0 2,0 13 7 SSW 10
03.04.2020 19:00:00 6,0 1,0 13 7 SSW 10
03.04.2020 18:00:00 6,0 1,0 22 12 SW 10
03.04.2020 17:00:00 7,0 1,0 24 13 SW 10
03.04.2020 16:00:00 7,0 1,0 18 10 SSW 10
03.04.2020 15:00:00 7,0 1,0 18 10 SW 10
03.04.2020 14:00:00 6,0 1,0 18 10 WNW 10
03.04.2020 13:00:00 8,0 -2,0 18 10 SW 10
03.04.2020 12:00:00 8,0 -2,0 18 10 W 10

tt = temperature
td = dewpoint
ff = wind speed
dd = wind direction
vv = visibility

Next stations